sensor_id;sensor_type;location;lat;lon;timestamp;P1;durP1;ratioP1;P2;durP2;ratioP2
23390;SDS011;11868;45.606;5.302;2022-12-18T00:01:01;84.32;;;36.38;;
23390;SDS011;11868;45.606;5.302;2022-12-18T00:03:34;77.47;;;36.50;;
23390;SDS011;11868;45.606;5.302;2022-12-18T00:06:00;79.97;;;36.80;;
23390;SDS011;11868;45.606;5.302;2022-12-18T00:08:26;78.40;;;38.75;;
23390;SDS011;11868;45.606;5.302;2022-12-18T00:10:52;79.20;;;37.47;;
23390;SDS011;11868;45.606;5.302;2022-12-18T00:13:17;77.20;;;35.95;;
23390;SDS011;11868;45.606;5.302;2022-12-18T00:15:43;75.70;;;36.80;;
23390;SDS011;11868;45.606;5.302;2022-12-18T00:18:08;75.65;;;35.25;;
23390;SDS011;11868;45.606;5.302;2022-12-18T00:20:37;77.13;;;35.22;;
23390;SDS011;11868;45.606;5.302;2022-12-18T00:23:04;77.97;;;37.55;;
23390;SDS011;11868;45.606;5.302;2022-12-18T00:25:34;85.90;;;38.85;;
23390;SDS011;11868;45.606;5.302;2022-12-18T00:28:00;85.35;;;38.00;;
23390;SDS011;11868;45.606;5.302;2022-12-18T00:30:25;82.35;;;36.90;;
23390;SDS011;11868;45.606;5.302;2022-12-18T00:32:51;77.93;;;36.78;;
23390;SDS011;11868;45.606;5.302;2022-12-18T00:35:16;87.15;;;36.63;;
23390;SDS011;11868;45.606;5.302;2022-12-18T00:37:42;78.85;;;38.25;;
23390;SDS011;11868;45.606;5.302;2022-12-18T00:40:07;93.40;;;40.15;;
23390;SDS011;11868;45.606;5.302;2022-12-18T00:42:34;90.07;;;38.65;;
23390;SDS011;11868;45.606;5.302;2022-12-18T00:45:17;78.32;;;36.30;;
23390;SDS011;11868;45.606;5.302;2022-12-18T00:47:43;81.47;;;38.35;;
23390;SDS011;11868;45.606;5.302;2022-12-18T00:50:08;86.82;;;39.33;;
23390;SDS011;11868;45.606;5.302;2022-12-18T00:52:34;82.93;;;37.85;;
23390;SDS011;11868;45.606;5.302;2022-12-18T00:54:59;78.95;;;36.25;;
23390;SDS011;11868;45.606;5.302;2022-12-18T00:57:25;73.05;;;35.05;;
23390;SDS011;11868;45.606;5.302;2022-12-18T00:59:50;83.95;;;36.65;;
23390;SDS011;11868;45.606;5.302;2022-12-18T01:02:16;75.82;;;34.67;;
23390;SDS011;11868;45.606;5.302;2022-12-18T01:04:41;78.40;;;37.08;;
23390;SDS011;11868;45.606;5.302;2022-12-18T01:07:07;89.75;;;38.08;;
23390;SDS011;11868;45.606;5.302;2022-12-18T01:09:32;74.75;;;35.83;;
23390;SDS011;11868;45.606;5.302;2022-12-18T01:11:58;74.97;;;35.88;;
23390;SDS011;11868;45.606;5.302;2022-12-18T01:14:23;77.00;;;35.75;;
23390;SDS011;11868;45.606;5.302;2022-12-18T01:16:48;77.55;;;34.17;;
23390;SDS011;11868;45.606;5.302;2022-12-18T01:19:14;71.75;;;35.78;;
23390;SDS011;11868;45.606;5.302;2022-12-18T01:21:39;76.28;;;35.80;;
23390;SDS011;11868;45.606;5.302;2022-12-18T01:24:05;69.88;;;33.55;;
23390;SDS011;11868;45.606;5.302;2022-12-18T01:26:31;72.53;;;35.50;;
23390;SDS011;11868;45.606;5.302;2022-12-18T01:28:56;65.93;;;32.33;;
23390;SDS011;11868;45.606;5.302;2022-12-18T01:31:23;63.15;;;31.48;;
23390;SDS011;11868;45.606;5.302;2022-12-18T01:33:51;65.93;;;32.37;;
23390;SDS011;11868;45.606;5.302;2022-12-18T01:36:21;61.83;;;32.80;;
23390;SDS011;11868;45.606;5.302;2022-12-18T01:38:49;71.63;;;33.00;;
23390;SDS011;11868;45.606;5.302;2022-12-18T01:41:15;65.40;;;32.30;;
23390;SDS011;11868;45.606;5.302;2022-12-18T01:43:46;63.13;;;31.10;;
23390;SDS011;11868;45.606;5.302;2022-12-18T01:46:14;60.72;;;30.92;;
23390;SDS011;11868;45.606;5.302;2022-12-18T01:48:40;60.35;;;29.95;;
23390;SDS011;11868;45.606;5.302;2022-12-18T01:51:06;57.65;;;28.58;;
23390;SDS011;11868;45.606;5.302;2022-12-18T01:53:33;55.40;;;29.30;;
23390;SDS011;11868;45.606;5.302;2022-12-18T01:55:58;59.53;;;30.73;;
23390;SDS011;11868;45.606;5.302;2022-12-18T01:58:29;56.83;;;29.48;;
23390;SDS011;11868;45.606;5.302;2022-12-18T02:00:57;56.42;;;30.55;;
23390;SDS011;11868;45.606;5.302;2022-12-18T02:03:22;60.13;;;30.08;;
23390;SDS011;11868;45.606;5.302;2022-12-18T02:06:21;62.15;;;31.48;;
23390;SDS011;11868;45.606;5.302;2022-12-18T02:11:14;59.80;;;28.73;;
23390;SDS011;11868;45.606;5.302;2022-12-18T02:16:57;50.25;;;27.13;;
23390;SDS011;11868;45.606;5.302;2022-12-18T02:19:33;52.30;;;27.50;;
23390;SDS011;11868;45.606;5.302;2022-12-18T02:27:38;52.55;;;28.08;;
23390;SDS011;11868;45.606;5.302;2022-12-18T02:30:04;49.75;;;28.65;;
23390;SDS011;11868;45.606;5.302;2022-12-18T02:32:32;49.97;;;26.98;;
23390;SDS011;11868;45.606;5.302;2022-12-18T02:35:01;46.22;;;26.02;;
23390;SDS011;11868;45.606;5.302;2022-12-18T02:37:28;49.03;;;27.13;;
23390;SDS011;11868;45.606;5.302;2022-12-18T02:39:55;49.30;;;26.20;;
23390;SDS011;11868;45.606;5.302;2022-12-18T02:42:21;54.85;;;28.08;;
23390;SDS011;11868;45.606;5.302;2022-12-18T02:44:48;45.13;;;27.35;;
23390;SDS011;11868;45.606;5.302;2022-12-18T02:47:16;47.30;;;26.20;;
23390;SDS011;11868;45.606;5.302;2022-12-18T02:55:08;43.15;;;24.48;;
23390;SDS011;11868;45.606;5.302;2022-12-18T02:57:44;44.20;;;24.33;;
23390;SDS011;11868;45.606;5.302;2022-12-18T03:00:40;45.37;;;25.10;;
23390;SDS011;11868;45.606;5.302;2022-12-18T03:03:39;40.80;;;24.40;;
23390;SDS011;11868;45.606;5.302;2022-12-18T03:09:02;44.15;;;23.90;;
23390;SDS011;11868;45.606;5.302;2022-12-18T03:11:32;40.83;;;23.05;;
23390;SDS011;11868;45.606;5.302;2022-12-18T03:14:18;43.38;;;23.30;;
23390;SDS011;11868;45.606;5.302;2022-12-18T03:16:45;38.30;;;22.17;;
23390;SDS011;11868;45.606;5.302;2022-12-18T03:19:16;38.30;;;22.55;;
23390;SDS011;11868;45.606;5.302;2022-12-18T03:21:45;36.30;;;21.48;;
23390;SDS011;11868;45.606;5.302;2022-12-18T03:24:11;40.30;;;22.45;;
23390;SDS011;11868;45.606;5.302;2022-12-18T03:26:37;37.20;;;21.92;;
23390;SDS011;11868;45.606;5.302;2022-12-18T03:29:07;37.45;;;21.95;;
23390;SDS011;11868;45.606;5.302;2022-12-18T03:31:37;38.17;;;21.52;;
23390;SDS011;11868;45.606;5.302;2022-12-18T03:34:06;40.88;;;22.75;;
23390;SDS011;11868;45.606;5.302;2022-12-18T03:36:34;37.22;;;22.23;;
23390;SDS011;11868;45.606;5.302;2022-12-18T03:39:00;37.38;;;22.17;;
23390;SDS011;11868;45.606;5.302;2022-12-18T03:41:28;40.03;;;21.70;;
23390;SDS011;11868;45.606;5.302;2022-12-18T03:44:13;36.72;;;21.25;;
23390;SDS011;11868;45.606;5.302;2022-12-18T03:49:47;37.22;;;22.08;;
23390;SDS011;11868;45.606;5.302;2022-12-18T03:52:19;34.17;;;20.08;;
23390;SDS011;11868;45.606;5.302;2022-12-18T03:54:48;39.90;;;21.15;;
23390;SDS011;11868;45.606;5.302;2022-12-18T03:57:24;39.65;;;22.27;;
23390;SDS011;11868;45.606;5.302;2022-12-18T03:59:54;35.70;;;21.02;;
23390;SDS011;11868;45.606;5.302;2022-12-18T04:02:22;34.78;;;20.42;;
23390;SDS011;11868;45.606;5.302;2022-12-18T04:04:50;33.03;;;19.73;;
23390;SDS011;11868;45.606;5.302;2022-12-18T04:07:17;55.85;;;31.73;;
23390;SDS011;11868;45.606;5.302;2022-12-18T04:09:43;35.55;;;21.42;;
23390;SDS011;11868;45.606;5.302;2022-12-18T04:12:09;33.10;;;20.10;;
23390;SDS011;11868;45.606;5.302;2022-12-18T04:14:35;36.45;;;20.80;;
23390;SDS011;11868;45.606;5.302;2022-12-18T04:17:01;34.03;;;21.00;;
23390;SDS011;11868;45.606;5.302;2022-12-18T04:19:27;35.40;;;21.13;;
23390;SDS011;11868;45.606;5.302;2022-12-18T04:21:53;37.13;;;21.58;;
23390;SDS011;11868;45.606;5.302;2022-12-18T04:24:18;34.92;;;21.10;;
23390;SDS011;11868;45.606;5.302;2022-12-18T04:26:44;35.95;;;20.60;;
23390;SDS011;11868;45.606;5.302;2022-12-18T04:29:09;35.15;;;21.30;;
23390;SDS011;11868;45.606;5.302;2022-12-18T04:31:34;35.90;;;19.95;;
23390;SDS011;11868;45.606;5.302;2022-12-18T04:34:00;35.60;;;20.55;;
23390;SDS011;11868;45.606;5.302;2022-12-18T04:36:25;35.95;;;20.45;;
23390;SDS011;11868;45.606;5.302;2022-12-18T04:38:51;33.85;;;19.70;;
23390;SDS011;11868;45.606;5.302;2022-12-18T04:41:16;37.53;;;21.55;;
23390;SDS011;11868;45.606;5.302;2022-12-18T04:43:41;38.70;;;21.63;;
23390;SDS011;11868;45.606;5.302;2022-12-18T04:46:07;32.45;;;19.75;;
23390;SDS011;11868;45.606;5.302;2022-12-18T04:48:34;33.40;;;19.50;;
23390;SDS011;11868;45.606;5.302;2022-12-18T04:51:00;35.22;;;19.88;;
23390;SDS011;11868;45.606;5.302;2022-12-18T04:53:25;35.25;;;20.17;;
23390;SDS011;11868;45.606;5.302;2022-12-18T04:55:50;33.60;;;19.67;;
23390;SDS011;11868;45.606;5.302;2022-12-18T04:58:16;35.30;;;20.38;;
23390;SDS011;11868;45.606;5.302;2022-12-18T05:00:41;34.65;;;19.60;;
23390;SDS011;11868;45.606;5.302;2022-12-18T05:03:07;33.45;;;19.42;;
23390;SDS011;11868;45.606;5.302;2022-12-18T05:05:34;32.90;;;19.77;;
23390;SDS011;11868;45.606;5.302;2022-12-18T05:07:59;32.38;;;18.65;;
23390;SDS011;11868;45.606;5.302;2022-12-18T05:10:25;31.42;;;18.98;;
23390;SDS011;11868;45.606;5.302;2022-12-18T05:12:50;30.15;;;18.15;;
23390;SDS011;11868;45.606;5.302;2022-12-18T05:15:31;30.27;;;18.73;;
23390;SDS011;11868;45.606;5.302;2022-12-18T05:17:57;29.58;;;18.35;;
23390;SDS011;11868;45.606;5.302;2022-12-18T05:20:23;30.58;;;18.05;;
23390;SDS011;11868;45.606;5.302;2022-12-18T05:22:49;31.67;;;19.55;;
23390;SDS011;11868;45.606;5.302;2022-12-18T05:25:15;31.67;;;18.20;;
23390;SDS011;11868;45.606;5.302;2022-12-18T05:27:41;31.20;;;18.55;;
23390;SDS011;11868;45.606;5.302;2022-12-18T05:30:06;31.30;;;19.60;;
23390;SDS011;11868;45.606;5.302;2022-12-18T05:32:33;31.70;;;18.23;;
23390;SDS011;11868;45.606;5.302;2022-12-18T05:34:58;30.48;;;18.40;;
23390;SDS011;11868;45.606;5.302;2022-12-18T05:37:24;61.50;;;35.67;;
23390;SDS011;11868;45.606;5.302;2022-12-18T05:39:49;31.00;;;18.92;;
23390;SDS011;11868;45.606;5.302;2022-12-18T05:42:14;30.98;;;18.92;;
23390;SDS011;11868;45.606;5.302;2022-12-18T05:44:40;27.48;;;17.25;;
23390;SDS011;11868;45.606;5.302;2022-12-18T05:47:05;28.95;;;17.50;;
23390;SDS011;11868;45.606;5.302;2022-12-18T05:49:31;31.00;;;17.33;;
23390;SDS011;11868;45.606;5.302;2022-12-18T05:51:56;28.50;;;17.05;;
23390;SDS011;11868;45.606;5.302;2022-12-18T05:54:22;32.38;;;17.30;;
23390;SDS011;11868;45.606;5.302;2022-12-18T05:56:48;25.67;;;16.25;;
23390;SDS011;11868;45.606;5.302;2022-12-18T05:59:13;28.35;;;17.27;;
23390;SDS011;11868;45.606;5.302;2022-12-18T06:01:39;27.00;;;16.10;;
23390;SDS011;11868;45.606;5.302;2022-12-18T06:04:04;28.23;;;16.30;;
23390;SDS011;11868;45.606;5.302;2022-12-18T06:06:30;29.90;;;16.42;;
23390;SDS011;11868;45.606;5.302;2022-12-18T06:08:55;27.27;;;16.42;;
23390;SDS011;11868;45.606;5.302;2022-12-18T06:11:22;31.27;;;16.90;;
23390;SDS011;11868;45.606;5.302;2022-12-18T06:13:53;26.98;;;15.95;;
23390;SDS011;11868;45.606;5.302;2022-12-18T06:16:19;25.25;;;14.95;;
23390;SDS011;11868;45.606;5.302;2022-12-18T06:18:45;24.83;;;15.23;;
23390;SDS011;11868;45.606;5.302;2022-12-18T06:21:11;28.80;;;16.58;;
23390;SDS011;11868;45.606;5.302;2022-12-18T06:23:36;26.65;;;16.08;;
23390;SDS011;11868;45.606;5.302;2022-12-18T06:26:03;24.80;;;15.50;;
23390;SDS011;11868;45.606;5.302;2022-12-18T06:28:32;27.30;;;16.33;;
23390;SDS011;11868;45.606;5.302;2022-12-18T06:30:58;26.88;;;15.82;;
23390;SDS011;11868;45.606;5.302;2022-12-18T06:33:25;25.05;;;15.70;;
23390;SDS011;11868;45.606;5.302;2022-12-18T06:35:51;28.20;;;15.50;;
23390;SDS011;11868;45.606;5.302;2022-12-18T06:38:16;26.80;;;15.55;;
23390;SDS011;11868;45.606;5.302;2022-12-18T06:40:42;26.30;;;16.15;;
23390;SDS011;11868;45.606;5.302;2022-12-18T06:43:07;30.30;;;19.45;;
23390;SDS011;11868;45.606;5.302;2022-12-18T06:45:32;27.25;;;17.35;;
23390;SDS011;11868;45.606;5.302;2022-12-18T06:47:58;27.52;;;19.27;;
23390;SDS011;11868;45.606;5.302;2022-12-18T06:50:23;26.95;;;16.00;;
23390;SDS011;11868;45.606;5.302;2022-12-18T06:52:49;24.92;;;15.05;;
23390;SDS011;11868;45.606;5.302;2022-12-18T06:55:14;36.05;;;24.25;;
23390;SDS011;11868;45.606;5.302;2022-12-18T06:57:39;52.08;;;33.63;;
23390;SDS011;11868;45.606;5.302;2022-12-18T07:00:05;41.70;;;26.92;;
23390;SDS011;11868;45.606;5.302;2022-12-18T07:02:31;26.35;;;15.95;;
23390;SDS011;11868;45.606;5.302;2022-12-18T07:04:57;30.15;;;21.25;;
23390;SDS011;11868;45.606;5.302;2022-12-18T07:07:22;25.42;;;16.73;;
23390;SDS011;11868;45.606;5.302;2022-12-18T07:09:49;29.58;;;15.98;;
23390;SDS011;11868;45.606;5.302;2022-12-18T07:12:15;26.77;;;15.77;;
23390;SDS011;11868;45.606;5.302;2022-12-18T07:14:40;42.05;;;26.65;;
23390;SDS011;11868;45.606;5.302;2022-12-18T07:17:05;48.97;;;31.02;;
23390;SDS011;11868;45.606;5.302;2022-12-18T07:19:31;48.20;;;29.42;;
23390;SDS011;11868;45.606;5.302;2022-12-18T07:21:56;44.33;;;27.90;;
23390;SDS011;11868;45.606;5.302;2022-12-18T07:24:21;28.63;;;18.98;;
23390;SDS011;11868;45.606;5.302;2022-12-18T07:26:47;24.83;;;15.68;;
23390;SDS011;11868;45.606;5.302;2022-12-18T07:29:12;26.50;;;17.60;;
23390;SDS011;11868;45.606;5.302;2022-12-18T07:31:38;24.88;;;16.23;;
23390;SDS011;11868;45.606;5.302;2022-12-18T07:34:03;24.02;;;15.70;;
23390;SDS011;11868;45.606;5.302;2022-12-18T07:36:29;22.70;;;15.95;;
23390;SDS011;11868;45.606;5.302;2022-12-18T07:38:54;22.33;;;15.10;;
23390;SDS011;11868;45.606;5.302;2022-12-18T07:41:20;24.83;;;14.90;;
23390;SDS011;11868;45.606;5.302;2022-12-18T07:43:46;26.40;;;15.82;;
23390;SDS011;11868;45.606;5.302;2022-12-18T07:46:12;22.55;;;13.73;;
23390;SDS011;11868;45.606;5.302;2022-12-18T07:48:41;22.65;;;14.98;;
23390;SDS011;11868;45.606;5.302;2022-12-18T07:51:07;20.92;;;13.88;;
23390;SDS011;11868;45.606;5.302;2022-12-18T07:53:34;21.92;;;12.50;;
23390;SDS011;11868;45.606;5.302;2022-12-18T07:56:01;18.85;;;12.73;;
23390;SDS011;11868;45.606;5.302;2022-12-18T07:58:29;21.47;;;15.37;;
23390;SDS011;11868;45.606;5.302;2022-12-18T08:01:01;19.35;;;13.27;;
23390;SDS011;11868;45.606;5.302;2022-12-18T08:03:36;22.70;;;13.15;;
23390;SDS011;11868;45.606;5.302;2022-12-18T08:06:03;20.83;;;12.27;;
23390;SDS011;11868;45.606;5.302;2022-12-18T08:08:31;22.77;;;14.00;;
23390;SDS011;11868;45.606;5.302;2022-12-18T08:10:57;20.90;;;13.13;;
23390;SDS011;11868;45.606;5.302;2022-12-18T08:13:23;19.20;;;12.73;;
23390;SDS011;11868;45.606;5.302;2022-12-18T08:15:56;20.23;;;12.77;;
23390;SDS011;11868;45.606;5.302;2022-12-18T08:18:22;17.75;;;11.02;;
23390;SDS011;11868;45.606;5.302;2022-12-18T08:20:48;19.83;;;12.15;;
23390;SDS011;11868;45.606;5.302;2022-12-18T08:23:13;18.05;;;11.95;;
23390;SDS011;11868;45.606;5.302;2022-12-18T08:25:39;16.15;;;10.80;;
23390;SDS011;11868;45.606;5.302;2022-12-18T08:28:04;17.27;;;11.00;;
23390;SDS011;11868;45.606;5.302;2022-12-18T08:30:29;34.70;;;20.27;;
23390;SDS011;11868;45.606;5.302;2022-12-18T08:32:55;19.98;;;12.55;;
23390;SDS011;11868;45.606;5.302;2022-12-18T08:35:20;14.68;;;9.80;;
23390;SDS011;11868;45.606;5.302;2022-12-18T08:37:46;14.00;;;9.30;;
23390;SDS011;11868;45.606;5.302;2022-12-18T08:40:12;15.13;;;9.13;;
23390;SDS011;11868;45.606;5.302;2022-12-18T08:42:37;15.77;;;9.20;;
23390;SDS011;11868;45.606;5.302;2022-12-18T08:45:21;16.17;;;9.32;;
23390;SDS011;11868;45.606;5.302;2022-12-18T08:47:47;14.55;;;8.73;;
23390;SDS011;11868;45.606;5.302;2022-12-18T08:50:12;13.82;;;8.23;;
23390;SDS011;11868;45.606;5.302;2022-12-18T08:52:38;14.15;;;9.25;;
23390;SDS011;11868;45.606;5.302;2022-12-18T08:55:03;13.30;;;8.98;;
23390;SDS011;11868;45.606;5.302;2022-12-18T08:57:29;14.75;;;9.75;;
23390;SDS011;11868;45.606;5.302;2022-12-18T08:59:54;13.20;;;9.02;;
23390;SDS011;11868;45.606;5.302;2022-12-18T09:02:20;14.52;;;9.05;;
23390;SDS011;11868;45.606;5.302;2022-12-18T09:04:48;12.90;;;8.30;;
23390;SDS011;11868;45.606;5.302;2022-12-18T09:07:14;17.52;;;11.45;;
23390;SDS011;11868;45.606;5.302;2022-12-18T09:09:39;53.20;;;29.60;;
23390;SDS011;11868;45.606;5.302;2022-12-18T09:12:04;22.45;;;15.15;;
23390;SDS011;11868;45.606;5.302;2022-12-18T09:14:30;16.42;;;11.32;;
23390;SDS011;11868;45.606;5.302;2022-12-18T09:16:55;14.35;;;8.73;;
23390;SDS011;11868;45.606;5.302;2022-12-18T09:19:20;12.88;;;8.35;;
23390;SDS011;11868;45.606;5.302;2022-12-18T09:21:46;13.40;;;8.82;;
23390;SDS011;11868;45.606;5.302;2022-12-18T09:24:12;11.63;;;7.45;;
23390;SDS011;11868;45.606;5.302;2022-12-18T09:26:38;12.73;;;9.43;;
23390;SDS011;11868;45.606;5.302;2022-12-18T09:29:03;13.07;;;8.68;;
23390;SDS011;11868;45.606;5.302;2022-12-18T09:31:29;12.35;;;8.50;;
23390;SDS011;11868;45.606;5.302;2022-12-18T09:33:55;12.68;;;7.78;;
23390;SDS011;11868;45.606;5.302;2022-12-18T09:36:21;12.90;;;8.13;;
23390;SDS011;11868;45.606;5.302;2022-12-18T09:38:50;12.10;;;7.72;;
23390;SDS011;11868;45.606;5.302;2022-12-18T09:47:13;12.98;;;7.68;;
23390;SDS011;11868;45.606;5.302;2022-12-18T09:49:43;12.65;;;7.93;;
23390;SDS011;11868;45.606;5.302;2022-12-18T09:52:21;11.18;;;7.20;;
23390;SDS011;11868;45.606;5.302;2022-12-18T09:57:31;13.60;;;7.55;;
23390;SDS011;11868;45.606;5.302;2022-12-18T10:02:45;10.48;;;6.95;;
23390;SDS011;11868;45.606;5.302;2022-12-18T10:05:15;11.35;;;7.15;;
23390;SDS011;11868;45.606;5.302;2022-12-18T10:07:52;10.10;;;7.28;;
23390;SDS011;11868;45.606;5.302;2022-12-18T10:10:23;12.57;;;7.05;;
23390;SDS011;11868;45.606;5.302;2022-12-18T10:15:55;10.57;;;7.95;;
23390;SDS011;11868;45.606;5.302;2022-12-18T10:21:24;13.10;;;8.80;;
23390;SDS011;11868;45.606;5.302;2022-12-18T10:26:46;15.85;;;9.63;;
23390;SDS011;11868;45.606;5.302;2022-12-18T10:29:12;15.75;;;11.20;;
23390;SDS011;11868;45.606;5.302;2022-12-18T10:31:38;15.73;;;10.40;;
23390;SDS011;11868;45.606;5.302;2022-12-18T10:34:04;15.02;;;9.43;;
23390;SDS011;11868;45.606;5.302;2022-12-18T10:36:29;16.42;;;8.73;;
23390;SDS011;11868;45.606;5.302;2022-12-18T10:39:00;13.18;;;8.93;;
23390;SDS011;11868;45.606;5.302;2022-12-18T10:41:39;14.63;;;9.43;;
23390;SDS011;11868;45.606;5.302;2022-12-18T10:44:16;16.50;;;7.97;;
23390;SDS011;11868;45.606;5.302;2022-12-18T10:46:44;17.08;;;11.27;;
23390;SDS011;11868;45.606;5.302;2022-12-18T10:49:21;37.90;;;19.15;;
23390;SDS011;11868;45.606;5.302;2022-12-18T10:51:48;16.73;;;11.67;;
23390;SDS011;11868;45.606;5.302;2022-12-18T10:54:15;13.57;;;9.65;;
23390;SDS011;11868;45.606;5.302;2022-12-18T10:56:43;17.73;;;10.45;;
23390;SDS011;11868;45.606;5.302;2022-12-18T10:59:09;13.45;;;8.90;;
23390;SDS011;11868;45.606;5.302;2022-12-18T11:01:56;12.48;;;7.75;;
23390;SDS011;11868;45.606;5.302;2022-12-18T11:04:26;15.05;;;9.05;;
23390;SDS011;11868;45.606;5.302;2022-12-18T11:09:19;14.35;;;9.85;;
23390;SDS011;11868;45.606;5.302;2022-12-18T11:11:53;15.50;;;9.20;;
23390;SDS011;11868;45.606;5.302;2022-12-18T11:14:22;39.13;;;18.65;;
23390;SDS011;11868;45.606;5.302;2022-12-18T11:16:54;18.30;;;10.98;;
23390;SDS011;11868;45.606;5.302;2022-12-18T11:19:33;14.27;;;9.52;;
23390;SDS011;11868;45.606;5.302;2022-12-18T11:22:01;11.73;;;7.60;;
23390;SDS011;11868;45.606;5.302;2022-12-18T11:26:59;16.70;;;9.43;;
23390;SDS011;11868;45.606;5.302;2022-12-18T11:29:36;12.50;;;7.40;;
23390;SDS011;11868;45.606;5.302;2022-12-18T11:32:21;15.88;;;8.80;;
23390;SDS011;11868;45.606;5.302;2022-12-18T11:34:53;12.45;;;8.85;;
23390;SDS011;11868;45.606;5.302;2022-12-18T11:37:23;23.85;;;8.77;;
23390;SDS011;11868;45.606;5.302;2022-12-18T11:39:49;13.90;;;9.32;;
23390;SDS011;11868;45.606;5.302;2022-12-18T11:42:56;16.48;;;6.90;;
23390;SDS011;11868;45.606;5.302;2022-12-18T11:45:33;15.70;;;8.10;;
23390;SDS011;11868;45.606;5.302;2022-12-18T11:48:03;10.88;;;6.65;;
23390;SDS011;11868;45.606;5.302;2022-12-18T11:53:09;12.82;;;8.15;;
23390;SDS011;11868;45.606;5.302;2022-12-18T11:55:37;8.13;;;5.68;;
23390;SDS011;11868;45.606;5.302;2022-12-18T12:04:32;15.80;;;8.90;;
23390;SDS011;11868;45.606;5.302;2022-12-18T12:09:56;38.90;;;19.25;;
23390;SDS011;11868;45.606;5.302;2022-12-18T12:17:45;20.20;;;10.93;;
23390;SDS011;11868;45.606;5.302;2022-12-18T12:20:37;13.88;;;7.88;;
23390;SDS011;11868;45.606;5.302;2022-12-18T12:26:06;21.30;;;11.43;;
23390;SDS011;11868;45.606;5.302;2022-12-18T12:38:59;7.45;;;4.32;;
23390;SDS011;11868;45.606;5.302;2022-12-18T12:41:27;10.32;;;5.13;;
23390;SDS011;11868;45.606;5.302;2022-12-18T12:44:16;8.25;;;5.00;;
23390;SDS011;11868;45.606;5.302;2022-12-18T12:47:14;8.18;;;5.70;;
23390;SDS011;11868;45.606;5.302;2022-12-18T12:49:43;8.55;;;5.57;;
23390;SDS011;11868;45.606;5.302;2022-12-18T12:52:34;8.18;;;5.53;;
23390;SDS011;11868;45.606;5.302;2022-12-18T12:55:00;10.45;;;5.40;;
23390;SDS011;11868;45.606;5.302;2022-12-18T12:57:33;8.65;;;5.57;;
23390;SDS011;11868;45.606;5.302;2022-12-18T13:00:14;16.27;;;8.02;;
23390;SDS011;11868;45.606;5.302;2022-12-18T13:08:29;14.55;;;9.10;;
23390;SDS011;11868;45.606;5.302;2022-12-18T13:10:59;10.13;;;7.35;;
23390;SDS011;11868;45.606;5.302;2022-12-18T13:13:50;9.73;;;5.97;;
23390;SDS011;11868;45.606;5.302;2022-12-18T13:16:20;12.90;;;7.20;;
23390;SDS011;11868;45.606;5.302;2022-12-18T13:18:50;9.05;;;6.55;;
23390;SDS011;11868;45.606;5.302;2022-12-18T13:21:24;10.48;;;5.75;;
23390;SDS011;11868;45.606;5.302;2022-12-18T13:23:53;12.85;;;7.13;;
23390;SDS011;11868;45.606;5.302;2022-12-18T13:36:47;10.73;;;5.97;;
23390;SDS011;11868;45.606;5.302;2022-12-18T13:41:39;7.85;;;5.50;;
23390;SDS011;11868;45.606;5.302;2022-12-18T13:44:13;7.15;;;5.00;;
23390;SDS011;11868;45.606;5.302;2022-12-18T13:46:48;7.97;;;5.32;;
23390;SDS011;11868;45.606;5.302;2022-12-18T13:49:23;8.68;;;4.93;;
23390;SDS011;11868;45.606;5.302;2022-12-18T13:51:52;6.20;;;4.60;;
23390;SDS011;11868;45.606;5.302;2022-12-18T13:56:56;8.98;;;5.57;;
23390;SDS011;11868;45.606;5.302;2022-12-18T13:59:25;11.52;;;5.05;;
23390;SDS011;11868;45.606;5.302;2022-12-18T14:02:07;6.20;;;4.30;;
23390;SDS011;11868;45.606;5.302;2022-12-18T14:04:38;7.70;;;4.22;;
23390;SDS011;11868;45.606;5.302;2022-12-18T14:07:04;8.35;;;4.15;;
23390;SDS011;11868;45.606;5.302;2022-12-18T14:09:34;8.50;;;4.35;;
23390;SDS011;11868;45.606;5.302;2022-12-18T14:12:01;7.10;;;4.40;;
23390;SDS011;11868;45.606;5.302;2022-12-18T14:14:47;11.68;;;4.80;;
23390;SDS011;11868;45.606;5.302;2022-12-18T14:17:14;16.13;;;8.75;;
23390;SDS011;11868;45.606;5.302;2022-12-18T14:19:43;11.98;;;5.65;;
23390;SDS011;11868;45.606;5.302;2022-12-18T14:22:13;7.78;;;4.20;;
23390;SDS011;11868;45.606;5.302;2022-12-18T14:24:40;7.88;;;4.13;;
23390;SDS011;11868;45.606;5.302;2022-12-18T14:27:13;5.93;;;4.05;;
23390;SDS011;11868;45.606;5.302;2022-12-18T14:29:46;9.27;;;4.43;;
23390;SDS011;11868;45.606;5.302;2022-12-18T14:32:12;9.02;;;4.30;;
23390;SDS011;11868;45.606;5.302;2022-12-18T14:34:42;9.77;;;4.45;;
23390;SDS011;11868;45.606;5.302;2022-12-18T14:37:09;10.27;;;4.55;;
23390;SDS011;11868;45.606;5.302;2022-12-18T14:39:36;10.48;;;4.47;;
23390;SDS011;11868;45.606;5.302;2022-12-18T14:42:01;7.13;;;4.60;;
23390;SDS011;11868;45.606;5.302;2022-12-18T14:44:26;8.35;;;4.60;;
23390;SDS011;11868;45.606;5.302;2022-12-18T14:46:52;9.00;;;4.50;;
23390;SDS011;11868;45.606;5.302;2022-12-18T14:49:25;10.18;;;4.22;;
23390;SDS011;11868;45.606;5.302;2022-12-18T14:51:55;8.77;;;3.92;;
23390;SDS011;11868;45.606;5.302;2022-12-18T14:54:25;7.07;;;4.03;;
23390;SDS011;11868;45.606;5.302;2022-12-18T14:56:53;6.68;;;4.28;;
23390;SDS011;11868;45.606;5.302;2022-12-18T14:59:26;7.97;;;4.72;;
23390;SDS011;11868;45.606;5.302;2022-12-18T15:04:33;5.63;;;4.20;;
23390;SDS011;11868;45.606;5.302;2022-12-18T15:12:36;20.10;;;13.68;;
23390;SDS011;11868;45.606;5.302;2022-12-18T15:15:04;20.45;;;13.93;;
23390;SDS011;11868;45.606;5.302;2022-12-18T15:17:30;20.90;;;14.02;;
23390;SDS011;11868;45.606;5.302;2022-12-18T15:20:03;20.40;;;13.70;;
23390;SDS011;11868;45.606;5.302;2022-12-18T15:22:35;21.92;;;13.73;;
23390;SDS011;11868;45.606;5.302;2022-12-18T15:25:01;20.60;;;13.05;;
23390;SDS011;11868;45.606;5.302;2022-12-18T15:27:30;18.48;;;12.48;;
23390;SDS011;11868;45.606;5.302;2022-12-18T15:32:32;19.73;;;12.93;;
23390;SDS011;11868;45.606;5.302;2022-12-18T15:37:39;16.65;;;11.93;;
23390;SDS011;11868;45.606;5.302;2022-12-18T15:40:05;19.02;;;13.60;;
23390;SDS011;11868;45.606;5.302;2022-12-18T15:42:31;23.33;;;14.13;;
23390;SDS011;11868;45.606;5.302;2022-12-18T15:45:15;22.38;;;13.85;;
23390;SDS011;11868;45.606;5.302;2022-12-18T15:47:41;22.23;;;14.75;;
23390;SDS011;11868;45.606;5.302;2022-12-18T15:50:09;20.05;;;14.15;;
23390;SDS011;11868;45.606;5.302;2022-12-18T15:52:39;21.27;;;12.98;;
23390;SDS011;11868;45.606;5.302;2022-12-18T15:55:13;21.05;;;14.02;;
23390;SDS011;11868;45.606;5.302;2022-12-18T15:58:04;19.40;;;13.25;;
23390;SDS011;11868;45.606;5.302;2022-12-18T16:00:31;19.60;;;12.93;;
23390;SDS011;11868;45.606;5.302;2022-12-18T16:02:58;20.65;;;14.00;;
23390;SDS011;11868;45.606;5.302;2022-12-18T16:05:23;21.88;;;14.05;;
23390;SDS011;11868;45.606;5.302;2022-12-18T16:07:49;18.92;;;13.13;;
23390;SDS011;11868;45.606;5.302;2022-12-18T16:10:14;20.42;;;13.98;;
23390;SDS011;11868;45.606;5.302;2022-12-18T16:12:40;20.50;;;13.45;;
23390;SDS011;11868;45.606;5.302;2022-12-18T16:15:06;19.08;;;11.43;;
23390;SDS011;11868;45.606;5.302;2022-12-18T16:17:32;19.65;;;13.00;;
23390;SDS011;11868;45.606;5.302;2022-12-18T16:19:58;17.90;;;12.18;;
23390;SDS011;11868;45.606;5.302;2022-12-18T16:22:24;19.30;;;14.18;;
23390;SDS011;11868;45.606;5.302;2022-12-18T16:24:51;21.83;;;14.70;;
23390;SDS011;11868;45.606;5.302;2022-12-18T16:27:18;17.77;;;12.40;;